createdAt,value
2022-08-11T00:00:09.903Z,100659.50
2022-08-11T00:02:41.444Z,100656.25
2022-08-11T00:05:13.466Z,100656.31
2022-08-11T00:07:46.850Z,100645.91
2022-08-11T00:10:17.896Z,100651.09
2022-08-11T00:12:53.627Z,100648.59
2022-08-11T00:15:22.693Z,100642.41
2022-08-11T00:17:57.315Z,100642.66
2022-08-11T00:20:32.233Z,100652.31
2022-08-11T00:23:06.417Z,100650.03
2022-08-11T00:25:39.511Z,100650.84
2022-08-11T00:28:25.089Z,100652.19
2022-08-11T00:30:56.397Z,100647.56
2022-08-11T00:33:41.385Z,100657.13
2022-08-11T00:36:16.290Z,100652.63
2022-08-11T00:38:46.402Z,100652.22
2022-08-11T00:41:29.193Z,100657.75
2022-08-11T00:44:15.890Z,100661.16
2022-08-11T00:46:52.198Z,100654.53
2022-08-11T00:49:31.068Z,100650.78
2022-08-11T00:52:14.401Z,100643.44
2022-08-11T00:55:16.838Z,100651.88
2022-08-11T00:58:21.884Z,100646.09
2022-08-11T01:01:10.507Z,100649.34
2022-08-11T01:04:00.753Z,100651.47
2022-08-11T01:07:02.020Z,100649.41
2022-08-11T01:09:50.701Z,100656.34
2022-08-11T01:12:45.734Z,100653.06
2022-08-11T01:16:00.462Z,100661.66
2022-08-11T01:18:57.952Z,100660.00
2022-08-11T01:22:12.319Z,100665.06
2022-08-11T01:25:12.851Z,100664.47
2022-08-11T01:28:29.380Z,100667.22
2022-08-11T01:31:31.177Z,100660.84
2022-08-11T01:34:35.428Z,100664.38
2022-08-11T01:37:31.038Z,100664.31
2022-08-11T01:40:37.829Z,100673.50
2022-08-11T01:43:51.414Z,100660.19
2022-08-11T01:46:27.624Z,100669.38
2022-08-11T01:50:06.552Z,100668.53
2022-08-11T01:52:09.521Z,100653.50
2022-08-11T01:54:45.107Z,100664.81
2022-08-11T01:57:22.602Z,100662.81
2022-08-11T01:59:55.664Z,100666.16
2022-08-11T02:02:47.522Z,100671.59
2022-08-11T02:05:48.139Z,100667.97
2022-08-11T02:08:33.629Z,100669.34
2022-08-11T02:11:35.602Z,100664.47
2022-08-11T02:14:16.028Z,100670.19
2022-08-11T02:16:57.474Z,100673.75
2022-08-11T02:19:52.204Z,100675.88
2022-08-11T02:22:51.010Z,100666.13
2022-08-11T02:25:29.460Z,100674.25
2022-08-11T02:28:03.589Z,100672.84
2022-08-11T02:30:38.138Z,100673.63
2022-08-11T02:33:25.335Z,100670.59
2022-08-11T02:36:04.722Z,100665.03
2022-08-11T02:38:43.417Z,100669.88
2022-08-11T02:41:34.845Z,100664.41
2022-08-11T02:44:22.423Z,100668.53
2022-08-11T02:47:02.775Z,100670.50
2022-08-11T02:50:02.620Z,100668.47
2022-08-11T02:52:45.341Z,100674.19
2022-08-11T02:55:47.986Z,100668.72
2022-08-11T02:58:16.189Z,100668.09
2022-08-11T03:00:55.001Z,100671.00
2022-08-11T03:03:31.023Z,100673.16
2022-08-11T03:06:15.598Z,100677.78
2022-08-11T03:08:54.153Z,100672.91
2022-08-11T03:11:57.310Z,100670.09
2022-08-11T03:14:48.403Z,100672.13
2022-08-11T03:17:32.034Z,100667.44
2022-08-11T03:20:16.310Z,100666.69
2022-08-11T03:22:53.600Z,100661.53
2022-08-11T03:25:31.563Z,100667.31
2022-08-11T03:28:09.452Z,100665.28
2022-08-11T03:30:47.774Z,100669.97
2022-08-11T03:33:43.952Z,100673.41
2022-08-11T03:36:21.245Z,100676.03
2022-08-11T03:39:02.146Z,100681.22
2022-08-11T03:42:01.282Z,100674.06
2022-08-11T03:45:00.988Z,100670.03
2022-08-11T03:48:01.527Z,100675.22
2022-08-11T03:50:55.395Z,100675.22
2022-08-11T03:53:40.825Z,100674.44
2022-08-11T03:56:38.079Z,100683.41
2022-08-11T03:59:35.789Z,100685.44
2022-08-11T04:02:42.499Z,100681.19
2022-08-11T04:05:40.693Z,100676.44
2022-08-11T04:08:38.576Z,100686.06
2022-08-11T04:11:35.967Z,100685.22
2022-08-11T04:15:01.587Z,100679.31
2022-08-11T04:18:06.300Z,100696.13
2022-08-11T04:20:55.513Z,100689.94
2022-08-11T04:24:36.386Z,100698.13
2022-08-11T04:27:13.234Z,100692.19
2022-08-11T04:30:03.824Z,100692.66
2022-08-11T04:32:54.836Z,100688.88
2022-08-11T04:35:35.798Z,100688.88
2022-08-11T04:38:45.851Z,100694.44
2022-08-11T04:41:34.121Z,100691.44
2022-08-11T04:44:44.254Z,100692.28
2022-08-11T04:47:59.756Z,100691.28
2022-08-11T04:51:08.652Z,100686.47
2022-08-11T04:54:15.110Z,100690.91
2022-08-11T04:57:03.319Z,100692.31
2022-08-11T05:00:19.995Z,100690.25
2022-08-11T05:03:18.444Z,100686.88
2022-08-11T05:06:21.738Z,100683.97
2022-08-11T05:09:13.631Z,100694.41
2022-08-11T05:12:07.897Z,100692.91
2022-08-11T05:14:57.391Z,100691.41
2022-08-11T05:17:53.104Z,100688.53
2022-08-11T05:20:40.415Z,100695.06
2022-08-11T05:23:28.753Z,100695.25
2022-08-11T05:26:46.455Z,100698.13
2022-08-11T05:29:45.209Z,100700.31
2022-08-11T05:32:34.384Z,100698.06
2022-08-11T05:35:07.391Z,100703.81
2022-08-11T05:37:42.233Z,100706.69
2022-08-11T05:40:30.613Z,100704.88
2022-08-11T05:43:19.639Z,100721.38
2022-08-11T05:46:15.604Z,100703.19
2022-08-11T05:49:02.284Z,100706.44
2022-08-11T05:51:55.514Z,100707.31
2022-08-11T05:54:45.964Z,100699.47
2022-08-11T05:57:45.516Z,100686.97
2022-08-11T06:00:12.436Z,100700.81
2022-08-11T06:02:44.354Z,100691.72
2022-08-11T06:05:14.153Z,100692.31
2022-08-11T06:07:48.402Z,100694.47
2022-08-11T06:10:27.533Z,100693.19
2022-08-11T06:12:56.742Z,100693.66
2022-08-11T06:15:27.276Z,100697.13
2022-08-11T06:17:56.732Z,100693.19
2022-08-11T06:20:25.478Z,100690.56
2022-08-11T06:22:59.816Z,100677.97
2022-08-11T06:25:32.522Z,100685.81
2022-08-11T06:28:01.437Z,100685.00
2022-08-11T06:30:40.743Z,100682.34
2022-08-11T06:33:11.908Z,100687.81
2022-08-11T06:35:58.267Z,100680.06
2022-08-11T06:38:42.420Z,100679.78
2022-08-11T06:41:33.093Z,100676.84
2022-08-11T06:44:17.489Z,100687.78
2022-08-11T06:46:50.983Z,100687.13
2022-08-11T06:49:38.510Z,100681.28
2022-08-11T06:52:34.319Z,100684.69
2022-08-11T06:55:05.966Z,100674.56
2022-08-11T06:57:53.005Z,100682.06
2022-08-11T07:00:29.811Z,100673.69
2022-08-11T07:03:03.298Z,100677.81
2022-08-11T07:05:43.869Z,100682.75
2022-08-11T07:09:00.539Z,100676.31
2022-08-11T07:12:18.058Z,100681.59
2022-08-11T07:15:08.945Z,100689.88
2022-08-11T07:17:42.613Z,100680.47
2022-08-11T07:20:28.187Z,100684.50
2022-08-11T07:23:15.781Z,100672.25
2022-08-11T07:26:05.760Z,100688.13
2022-08-11T07:28:53.472Z,100682.19
2022-08-11T07:31:29.230Z,100690.56
2022-08-11T07:34:10.247Z,100672.69
2022-08-11T07:36:47.082Z,100675.56
2022-08-11T07:39:20.970Z,100677.50
2022-08-11T07:41:49.745Z,100679.38
2022-08-11T07:44:18.627Z,100678.50
2022-08-11T07:47:07.066Z,100679.50
2022-08-11T07:49:54.744Z,100672.94
2022-08-11T07:52:30.341Z,100667.69
2022-08-11T07:55:00.601Z,100673.56
2022-08-11T07:58:14.210Z,100680.28
2022-08-11T08:00:55.150Z,100676.47
2022-08-11T08:03:54.650Z,100660.13
2022-08-11T08:06:41.674Z,100676.63
2022-08-11T08:09:29.558Z,100668.38
2022-08-11T08:12:15.555Z,100666.44
2022-08-11T08:15:01.684Z,100668.34
2022-08-11T08:18:09.506Z,100671.81
2022-08-11T08:20:39.411Z,100678.84
2022-08-11T08:23:08.661Z,100675.63
2022-08-11T08:25:40.742Z,100665.97
2022-08-11T08:28:13.915Z,100669.94
2022-08-11T08:30:47.585Z,100675.38
2022-08-11T08:33:20.265Z,100667.38
2022-08-11T08:35:54.466Z,100669.25
2022-08-11T08:38:24.651Z,100669.63
2022-08-11T08:40:56.793Z,100669.88
2022-08-11T08:43:25.519Z,100666.44
2022-08-11T08:45:58.294Z,100664.50
2022-08-11T08:48:27.902Z,100672.09
2022-08-11T08:51:20.029Z,100673.22
2022-08-11T08:53:53.732Z,100665.69
2022-08-11T08:56:29.619Z,100669.41
2022-08-11T08:59:00.679Z,100665.97
2022-08-11T09:01:31.174Z,100660.59
2022-08-11T09:04:04.695Z,100661.16
2022-08-11T09:06:40.787Z,100655.03
2022-08-11T09:09:09.276Z,100646.72
2022-08-11T09:11:57.107Z,100658.59
2022-08-11T09:14:48.639Z,100644.78
2022-08-11T09:17:18.655Z,100646.56
2022-08-11T09:19:47.528Z,100642.78
2022-08-11T09:22:42.567Z,100640.59
2022-08-11T09:25:28.439Z,100638.75
2022-08-11T09:27:57.793Z,100635.22
2022-08-11T09:30:27.765Z,100636.50
2022-08-11T09:32:58.120Z,100628.06
2022-08-11T09:35:28.424Z,100636.28
2022-08-11T09:38:15.073Z,100636.03
2022-08-11T09:40:45.987Z,100631.00
2022-08-11T09:43:40.004Z,100628.50
2022-08-11T09:46:09.656Z,100630.13
2022-08-11T09:48:40.868Z,100611.97
2022-08-11T09:51:10.949Z,100614.97
2022-08-11T09:53:41.222Z,100612.88
2022-08-11T09:56:33.503Z,100613.66
2022-08-11T09:59:04.319Z,100616.03
2022-08-11T10:01:38.057Z,100624.72
2022-08-11T10:04:10.449Z,100620.88
2022-08-11T10:06:57.607Z,100618.28
2022-08-11T10:09:27.199Z,100606.97
2022-08-11T10:12:02.860Z,100604.72
2022-08-11T10:14:50.723Z,100610.91
2022-08-11T10:17:22.870Z,100605.56
2022-08-11T10:20:04.441Z,100601.47
2022-08-11T10:22:52.414Z,100602.97
2022-08-11T10:25:38.776Z,100601.34
2022-08-11T10:28:30.404Z,100600.25
2022-08-11T10:31:18.437Z,100590.59
2022-08-11T10:34:03.748Z,100592.44
2022-08-11T10:36:33.850Z,100582.81
2022-08-11T10:39:03.267Z,100580.66
2022-08-11T10:42:03.339Z,100578.72
2022-08-11T10:44:40.013Z,100572.78
2022-08-11T10:47:29.833Z,100575.03
2022-08-11T10:50:12.279Z,100575.84
2022-08-11T10:52:58.659Z,100578.84
2022-08-11T10:55:45.110Z,100559.38
2022-08-11T10:58:31.972Z,100549.25
2022-08-11T11:01:00.837Z,100550.78
2022-08-11T11:03:34.488Z,100544.25
2022-08-11T11:06:12.544Z,100545.75
2022-08-11T11:09:04.473Z,100533.63
2022-08-11T11:11:54.984Z,100530.81
2022-08-11T11:14:46.355Z,100548.63
2022-08-11T11:17:45.034Z,100540.13
2022-08-11T11:20:36.764Z,100536.53
2022-08-11T11:23:07.572Z,100534.09
2022-08-11T11:26:06.611Z,100534.41
2022-08-11T11:28:51.385Z,100525.13
2022-08-11T11:31:35.082Z,100523.16
2022-08-11T11:34:16.003Z,100518.69
2022-08-11T11:36:48.701Z,100509.44
2022-08-11T11:39:19.935Z,100514.94
2022-08-11T11:41:48.056Z,100506.75
2022-08-11T11:44:16.897Z,100499.69
2022-08-11T11:46:46.527Z,100491.72
2022-08-11T11:49:17.376Z,100500.75
2022-08-11T11:51:50.020Z,100500.41
2022-08-11T11:54:22.246Z,100475.09
2022-08-11T11:56:53.170Z,100478.88
2022-08-11T11:59:39.978Z,100483.00
2022-08-11T12:02:11.752Z,100485.22
2022-08-11T12:04:43.923Z,100485.47
2022-08-11T12:07:30.987Z,100483.41
2022-08-11T12:09:59.976Z,100486.28
2022-08-11T12:12:46.695Z,100481.56
2022-08-11T12:15:14.738Z,100469.72
2022-08-11T12:17:42.476Z,100451.63
2022-08-11T12:20:31.894Z,100447.09
2022-08-11T12:23:17.226Z,100458.13
2022-08-11T12:26:25.339Z,100440.56
2022-08-11T12:28:48.945Z,100443.50
2022-08-11T12:31:16.848Z,100447.94
2022-08-11T12:33:47.089Z,100449.09
2022-08-11T12:36:16.485Z,100436.03
2022-08-11T12:38:51.278Z,100431.13
2022-08-11T12:41:38.124Z,100437.28
2022-08-11T12:44:27.788Z,100426.69
2022-08-11T12:46:57.526Z,100437.41
2022-08-11T12:49:45.482Z,100418.03
2022-08-11T12:52:22.316Z,100431.00
2022-08-11T12:54:58.980Z,100418.53
2022-08-11T12:57:51.058Z,100419.56
2022-08-11T13:00:38.092Z,100416.81
2022-08-11T13:03:26.076Z,100416.47
2022-08-11T13:05:56.577Z,100410.25
2022-08-11T13:08:25.857Z,100406.34
2022-08-11T13:11:14.614Z,100403.06
2022-08-11T13:13:53.995Z,100410.53
2022-08-11T13:16:25.036Z,100411.28
2022-08-11T13:18:53.687Z,100403.94
2022-08-11T13:21:22.943Z,100401.88
2022-08-11T13:24:01.065Z,100391.38
2022-08-11T13:26:46.842Z,100393.81
2022-08-11T13:29:21.648Z,100402.44
2022-08-11T13:31:49.820Z,100383.84
2022-08-11T13:34:20.011Z,100390.38
2022-08-11T13:36:52.807Z,100389.56
2022-08-11T13:39:23.952Z,100378.63
2022-08-11T13:41:56.501Z,100375.06
2022-08-11T13:44:27.060Z,100373.47
2022-08-11T13:46:57.261Z,100374.56
2022-08-11T13:49:26.085Z,100374.28
2022-08-11T13:51:56.233Z,100368.91
2022-08-11T13:54:26.406Z,100358.13
2022-08-11T13:56:57.845Z,100359.25
2022-08-11T13:59:30.080Z,100361.72
2022-08-11T14:02:21.902Z,100345.88
2022-08-11T14:04:55.068Z,100343.13
2022-08-11T14:07:26.641Z,100344.56
2022-08-11T14:09:58.578Z,100340.19
2022-08-11T14:12:48.092Z,100347.81
2022-08-11T14:15:20.834Z,100336.41
2022-08-11T14:17:53.124Z,100346.19
2022-08-11T14:20:38.062Z,100333.63
2022-08-11T14:23:08.329Z,100340.66
2022-08-11T14:26:00.301Z,100329.59
2022-08-11T14:28:33.722Z,100320.47
2022-08-11T14:31:05.261Z,100320.66
2022-08-11T14:33:58.858Z,100323.25
2022-08-11T14:36:24.717Z,100320.31
2022-08-11T14:38:54.453Z,100312.81
2022-08-11T14:42:07.582Z,100308.72
2022-08-11T14:44:49.715Z,100304.66
2022-08-11T14:47:24.008Z,100298.94
2022-08-11T14:50:09.548Z,100292.25
2022-08-11T14:52:43.999Z,100296.84
2022-08-11T14:55:30.706Z,100297.31
2022-08-11T14:57:59.256Z,100298.16
2022-08-11T15:00:29.241Z,100296.84
2022-08-11T15:03:12.612Z,100286.41
2022-08-11T15:05:55.679Z,100282.50
2022-08-11T15:08:42.577Z,100286.06
2022-08-11T15:11:32.175Z,100285.78
2022-08-11T15:14:01.268Z,100279.56
2022-08-11T15:16:48.891Z,100278.44
2022-08-11T15:19:19.542Z,100276.47
2022-08-11T15:22:04.824Z,100272.88
2022-08-11T15:24:33.693Z,100269.59
2022-08-11T15:27:22.808Z,100263.25
2022-08-11T15:30:10.529Z,100254.31
2022-08-11T15:33:09.061Z,100247.28
2022-08-11T15:35:56.162Z,100257.75
2022-08-11T15:38:25.295Z,100249.41
2022-08-11T15:41:14.672Z,100250.06
2022-08-11T15:44:06.866Z,100252.84
2022-08-11T15:46:40.541Z,100250.22
2022-08-11T15:49:13.954Z,100254.78
2022-08-11T15:52:00.409Z,100255.44
2022-08-11T15:54:32.914Z,100256.25
2022-08-11T15:57:02.555Z,100250.88
2022-08-11T15:59:50.078Z,100235.44
2022-08-11T16:02:51.807Z,100244.16
2022-08-11T16:05:44.921Z,100234.09
2022-08-11T16:08:10.312Z,100233.91
2022-08-11T16:10:42.067Z,100228.38
2022-08-11T16:13:33.591Z,100228.84
2022-08-11T16:16:18.707Z,100225.59
2022-08-11T16:18:54.509Z,100223.84
2022-08-11T16:21:35.140Z,100215.34
2022-08-11T16:24:07.663Z,100218.63
2022-08-11T16:27:09.237Z,100223.69
2022-08-11T16:29:28.055Z,100217.00
2022-08-11T16:32:14.559Z,100210.47
2022-08-11T16:35:02.583Z,100212.63
2022-08-11T16:37:51.570Z,100208.56
2022-08-11T16:40:20.829Z,100208.69
2022-08-11T16:43:10.670Z,100200.22
2022-08-11T16:45:58.378Z,100198.78
2022-08-11T16:48:37.181Z,100203.13
2022-08-11T16:51:07.736Z,100195.34
2022-08-11T16:54:03.422Z,100201.34
2022-08-11T16:56:30.893Z,100198.09
2022-08-11T16:59:17.037Z,100202.34
2022-08-11T17:01:53.406Z,100198.44
2022-08-11T17:04:53.941Z,100194.84
2022-08-11T17:07:43.182Z,100185.22
2022-08-11T17:10:50.432Z,100190.44
2022-08-11T17:13:32.638Z,100191.25
2022-08-11T17:16:08.422Z,100187.50
2022-08-11T17:18:44.091Z,100187.97
2022-08-11T17:21:20.779Z,100191.91
2022-08-11T17:23:51.757Z,100189.94
2022-08-11T17:26:26.038Z,100185.72
2022-08-11T17:28:58.691Z,100180.81
2022-08-11T17:31:47.772Z,100179.38
2022-08-11T17:34:33.926Z,100179.69
2022-08-11T17:37:02.283Z,100176.94
2022-08-11T17:39:32.666Z,100179.84
2022-08-11T17:42:20.480Z,100181.13
2022-08-11T17:45:07.499Z,100179.81
2022-08-11T17:47:53.504Z,100178.28
2022-08-11T17:50:22.018Z,100186.91
2022-08-11T17:53:08.503Z,100187.56
2022-08-11T17:55:56.064Z,100182.16
2022-08-11T17:58:46.252Z,100185.22
2022-08-11T18:01:15.594Z,100184.91
2022-08-11T18:03:53.213Z,100193.19
2022-08-11T18:06:33.579Z,100195.47
2022-08-11T18:09:22.489Z,100195.44
2022-08-11T18:12:11.656Z,100205.00
2022-08-11T18:15:02.880Z,100205.22
2022-08-11T18:17:48.763Z,100205.19
2022-08-11T18:20:34.048Z,100212.94
2022-08-11T18:23:40.708Z,100207.22
2022-08-11T18:26:31.266Z,100210.09
2022-08-11T18:29:17.664Z,100207.00
2022-08-11T18:32:08.500Z,100209.53
2022-08-11T18:34:59.097Z,100215.97
2022-08-11T18:37:46.106Z,100211.47
2022-08-11T18:40:36.188Z,100211.03
2022-08-11T18:43:27.347Z,100210.66
2022-08-11T18:46:18.481Z,100215.41
2022-08-11T18:49:11.786Z,100205.91
2022-08-11T18:52:03.924Z,100218.31
2022-08-11T18:54:53.225Z,100217.69
2022-08-11T18:57:49.528Z,100220.03
2022-08-11T19:00:40.526Z,100220.97
2022-08-11T19:03:27.792Z,100221.38
2022-08-11T19:06:38.954Z,100230.47
2022-08-11T19:09:25.151Z,100231.94
2022-08-11T19:12:11.972Z,100238.06
2022-08-11T19:15:00.019Z,100242.44
2022-08-11T19:17:48.005Z,100240.50
2022-08-11T19:20:37.990Z,100248.66
2022-08-11T19:23:27.387Z,100246.72
2022-08-11T19:26:13.337Z,100247.91
2022-08-11T19:29:01.762Z,100253.53
2022-08-11T19:31:48.210Z,100250.94
2022-08-11T19:34:35.592Z,100258.78
2022-08-11T19:37:24.969Z,100258.78
2022-08-11T19:40:14.328Z,100264.72
2022-08-11T19:43:01.772Z,100264.34
2022-08-11T19:45:52.244Z,100263.88
2022-08-11T19:48:39.765Z,100263.72
2022-08-11T19:51:26.827Z,100274.03
2022-08-11T19:54:12.866Z,100275.00
2022-08-11T19:57:00.920Z,100274.53
2022-08-11T19:59:46.825Z,100274.69
2022-08-11T20:02:32.060Z,100283.81
2022-08-11T20:05:17.583Z,100281.50
2022-08-11T20:08:05.260Z,100290.06
2022-08-11T20:10:51.916Z,100283.53
2022-08-11T20:13:41.636Z,100291.72
2022-08-11T20:16:31.063Z,100292.88
2022-08-11T20:19:18.573Z,100285.19
2022-08-11T20:22:08.205Z,100297.34
2022-08-11T20:24:56.731Z,100297.63
2022-08-11T20:27:43.566Z,100307.59
2022-08-11T20:30:31.976Z,100296.34
2022-08-11T20:33:17.989Z,100301.41
2022-08-11T20:36:06.948Z,100298.88
2022-08-11T20:38:53.649Z,100298.69
2022-08-11T20:41:57.744Z,100304.00
2022-08-11T20:44:45.973Z,100304.53
2022-08-11T20:47:59.101Z,100303.97
2022-08-11T20:50:40.408Z,100313.72
2022-08-11T20:53:26.916Z,100304.41
2022-08-11T20:56:14.024Z,100309.38
2022-08-11T20:59:14.370Z,100306.19
2022-08-11T21:02:05.272Z,100308.94
2022-08-11T21:04:57.718Z,100315.75
2022-08-11T21:07:55.323Z,100316.44
2022-08-11T21:10:44.776Z,100313.19
2022-08-11T21:13:34.325Z,100311.34
2022-08-11T21:16:26.614Z,100307.22
2022-08-11T21:19:19.155Z,100313.09
2022-08-11T21:22:28.005Z,100315.38
2022-08-11T21:25:16.404Z,100318.72
2022-08-11T21:28:04.814Z,100322.56
2022-08-11T21:30:57.518Z,100320.41
2022-08-11T21:33:46.263Z,100323.19
2022-08-11T21:36:33.567Z,100321.28
2022-08-11T21:39:24.756Z,100332.78
2022-08-11T21:42:12.446Z,100328.72
2022-08-11T21:44:59.861Z,100320.91
2022-08-11T21:47:45.818Z,100330.50
2022-08-11T21:50:32.046Z,100333.53
2022-08-11T21:53:18.215Z,100346.47
2022-08-11T21:56:05.255Z,100348.38
2022-08-11T21:58:51.630Z,100347.84
2022-08-11T22:01:37.115Z,100348.44
2022-08-11T22:04:24.410Z,100352.56
2022-08-11T22:07:10.230Z,100353.34
2022-08-11T22:09:55.890Z,100353.09
2022-08-11T22:12:45.129Z,100351.75
2022-08-11T22:15:31.390Z,100355.88
2022-08-11T22:18:16.916Z,100352.84
2022-08-11T22:21:03.269Z,100349.00
2022-08-11T22:23:51.390Z,100351.75
2022-08-11T22:26:39.594Z,100356.44
2022-08-11T22:29:50.146Z,100347.97
2022-08-11T22:32:36.640Z,100357.50
2022-08-11T22:35:23.343Z,100347.44
2022-08-11T22:38:09.509Z,100347.97
2022-08-11T22:40:55.805Z,100352.63
2022-08-11T22:43:41.167Z,100346.34
2022-08-11T22:46:27.889Z,100353.19
2022-08-11T22:49:14.889Z,100359.75
2022-08-11T22:52:02.892Z,100355.41
2022-08-11T22:54:49.691Z,100358.69
2022-08-11T22:57:35.245Z,100357.91
2022-08-11T23:00:20.958Z,100355.44
2022-08-11T23:03:08.346Z,100358.72
2022-08-11T23:05:59.087Z,100362.00
2022-08-11T23:08:45.068Z,100365.81
2022-08-11T23:12:06.206Z,100355.13
2022-08-11T23:14:35.623Z,100357.88
2022-08-11T23:17:21.199Z,100359.50
2022-08-11T23:20:17.654Z,100360.59
2022-08-11T23:23:14.473Z,100358.13
2022-08-11T23:26:01.382Z,100363.06
2022-08-11T23:28:50.496Z,100361.44
2022-08-11T23:31:51.039Z,100359.50
2022-08-11T23:35:04.814Z,100358.41
2022-08-11T23:37:46.418Z,100352.41
2022-08-11T23:40:31.480Z,100346.09
2022-08-11T23:43:16.734Z,100343.09
2022-08-11T23:46:02.228Z,100344.72
2022-08-11T23:48:49.676Z,100341.47
2022-08-11T23:51:40.360Z,100343.91
2022-08-11T23:54:28.193Z,100342.25
2022-08-11T23:57:13.346Z,100335.69
2022-08-11T23:59:58.744Z,100337.06
